Latest Weather Observations for Lake Julius

IDQ60801

Issued at 8:32 pm EST Tuesday 27 June 2017 (issued every 30 minutes, with the page automatically refreshed every 10 minutes)

About weather observations | Map of weather stations | Latest weather observations for QLD | Other Formats
Station Details ID: 029181 Name: LAKE JULIUS AWS Lat: -20.12 Lon: 139.73 Height: 237.0 m
Data from the previous 72 hours. | See also: Recent months at Lake Julius
Date/Time
EST
Temp
°C
App
Temp
°C
Dew
Point
°C
Rel
Hum
%
Delta-T
°C
Wind Press
QNH
hPa
Press
MSL
hPa
Rain since
9am
mm
Dir  Spd
km/h
Gust
km/h
Spd
kts
Gust
kts
27/08:30pm 22.2 23.1 13.0 56 5.3 CALM 0 0 0 0 - - 0.0
27/08:00pm 23.1 23.6 11.5 48 6.6 CALM 0 2 0 1 - - 0.0
27/07:30pm 23.5 23.4 9.5 41 7.7 CALM 0 0 0 0 - - 0.0
27/07:00pm 24.6 23.7 9.3 38 8.4 ESE 4 6 2 3 - - 0.0
27/06:30pm 26.4 25.6 9.7 35 9.3 E 4 6 2 3 - - 0.0
27/06:00pm 27.1 25.9 9.5 33 9.8 ESE 6 9 3 5 - - 0.0
27/05:30pm 28.5 27.7 9.7 31 10.6 ESE 4 6 2 3 - - 0.0
27/05:00pm 28.9 27.5 9.6 30 10.9 NE 7 11 4 6 - - 0.0
27/04:30pm 29.2 27.9 9.9 30 11.0 ESE 7 13 4 7 - - 0.0
27/04:00pm 29.1 27.8 9.8 30 10.9 ENE 7 13 4 7 - - 0.0
27/03:30pm 29.6 28.4 9.7 29 11.3 ENE 6 13 3 7 - - 0.0
27/03:00pm 29.6 27.9 9.7 29 11.3 N 9 13 5 7 - - 0.0
27/02:30pm 29.0 28.0 10.2 31 10.7 ENE 6 11 3 6 - - 0.0
27/02:00pm 28.2 26.5 9.9 32 10.3 E 9 17 5 9 - - 0.0
27/01:30pm 28.6 27.2 10.8 33 10.2 ENE 9 13 5 7 - - 0.0
27/01:00pm 28.0 26.5 10.7 34 9.9 NNE 9 15 5 8 - - 0.0
27/12:30pm 28.3 26.7 11.4 35 9.8 NNE 11 17 6 9 - - 0.0
27/12:00pm 26.3 24.3 10.0 36 9.1 NNE 11 17 6 9 - - 0.0
27/11:30am 25.2 22.8 9.9 38 8.5 N 13 20 7 11 - - 0.0
27/11:00am 25.3 24.0 10.0 38 8.5 NNE 7 11 4 6 - - 0.0
27/10:30am 23.7 21.2 9.7 41 7.7 NNE 13 20 7 11 - - 0.0
27/10:00am 23.6 22.5 8.5 38 8.1 NE 4 9 2 5 - - 0.0
27/09:30am 21.0 20.7 8.6 45 6.6 CALM 0 0 0 0 - - 0.0
27/09:00am 18.1 17.2 9.2 56 4.7 SSW 4 6 2 3 - - 0.0
27/08:30am 16.2 16.1 9.6 65 3.5 CALM 0 0 0 0 - - 0.0
27/08:00am 14.5 14.2 8.5 67 3.1 CALM 0 0 0 0 - - 0.0
27/07:30am 13.3 12.9 8.2 71 2.6 CALM 0 0 0 0 - - 0.0
27/07:00am 13.6 12.5 8.4 71 2.6 NNE 4 6 2 3 - - 0.0
27/06:30am 13.7 13.2 7.9 68 2.9 CALM 0 4 0 2 - - 0.0
27/06:00am 14.1 13.8 8.5 69 2.8 CALM 0 0 0 0 - - 0.0
27/05:30am 14.0 13.6 8.2 68 2.9 CALM 0 0 0 0 - - 0.0
27/05:00am 14.7 14.4 8.6 67 3.1 CALM 0 0 0 0 - - 0.0
27/04:30am 15.1 14.1 9.0 67 3.2 SW 4 4 2 2 - - 0.0
27/04:00am 15.2 14.3 9.1 67 3.2 SW 4 4 2 2 - - 0.0
27/03:30am 15.6 14.8 9.7 68 3.1 SSW 4 4 2 2 - - 0.0
27/03:00am 16.1 15.2 10.8 71 2.9 SSW 6 9 3 5 - - 0.0
27/02:30am 15.7 14.7 8.9 64 3.5 SSW 4 4 2 2 - - 0.0
27/02:00am 16.5 15.1 9.0 61 3.9 SSW 6 7 3 4 - - 0.0
27/01:30am 16.4 15.8 9.1 62 3.8 SSW 2 6 1 3 - - 0.0
27/01:00am 16.6 16.6 9.8 64 3.6 CALM 0 0 0 0 - - 0.0
27/12:30am 17.1 17.2 10.0 63 3.8 CALM 0 2 0 1 - - 0.0
27/12:00am 17.6 17.1 10.9 65 3.6 SSW 4 4 2 2 - - 0.0
 
Date/Time
EST
Temp
°C
App
Temp
°C
Dew
Point
°C
Rel
Hum
%
Delta-T
°C
Wind Press
QNH
hPa
Press
MSL
hPa
Rain since
9am
mm
Dir  Spd
km/h
Gust
km/h
Spd
kts
Gust
kts
26/11:30pm 18.0 17.3 11.3 65 3.7 SSW 6 6 3 3 - - 0.0
26/11:00pm 18.3 18.1 10.4 60 4.3 SSW 2 4 1 2 - - 0.0
26/10:30pm 19.0 19.0 11.1 60 4.4 SSW 2 4 1 2 - - 0.0
26/10:00pm 19.5 19.5 11.0 58 4.7 S 2 2 1 1 - - 0.0
26/09:30pm 19.9 20.1 11.9 60 4.5 SSW 2 4 1 2 - - 0.0
26/09:00pm 20.7 20.1 10.5 52 5.6 SSW 4 6 2 3 - - 0.0
26/08:30pm 21.7 20.8 9.3 45 6.7 SW 4 6 2 3 - - 0.0
26/08:00pm 22.8 22.4 8.1 39 7.8 CALM 0 0 0 0 - - 0.0
26/07:30pm 23.9 22.8 6.7 33 9.0 NE 2 2 1 1 - - 0.0
26/07:00pm 25.0 23.5 6.7 31 9.6 S 4 4 2 2 - - 0.0
26/06:30pm 26.5 25.0 7.0 29 10.4 SSE 4 7 2 4 - - 0.0
26/06:00pm 27.1 25.3 7.0 28 10.8 E 6 15 3 8 - - 0.0
26/05:30pm 28.3 26.3 7.0 26 11.5 ENE 7 19 4 10 - - 0.0
26/05:00pm 28.8 26.4 6.8 25 11.8 ENE 9 19 5 10 - - 0.0
26/04:30pm 29.0 25.8 7.0 25 11.9 E 13 24 7 13 - - 0.0
26/04:00pm 28.6 25.0 6.7 25 11.8 ESE 15 22 8 12 - - 0.0
26/03:30pm 29.0 25.8 7.0 25 11.9 SE 13 24 7 13 - - 0.0
26/03:00pm 28.6 25.0 6.7 25 11.8 ENE 15 22 8 12 - - 0.0
26/02:30pm 28.9 25.0 6.9 25 11.9 ENE 17 24 9 13 - - 0.0
26/02:00pm 29.2 25.8 7.7 26 11.8 NE 15 24 8 13 - - 0.0
26/01:30pm 28.8 26.2 7.9 27 11.5 NE 11 22 6 12 - - 0.0
26/01:00pm 27.6 23.5 8.0 29 10.7 NE 19 37 10 20 - - 0.0
26/12:30pm 26.9 23.6 7.9 30 10.3 ENE 15 26 8 14 - - 0.0
26/12:00pm 26.4 23.6 8.4 32 9.8 ENE 13 24 7 13 - - 0.0
26/11:30am 25.6 22.7 8.1 33 9.5 NE 13 19 7 10 - - 0.0
26/11:00am 25.4 22.9 8.4 34 9.2 ENE 11 19 6 10 - - 0.0
26/10:30am 24.1 21.2 8.1 36 8.6 ENE 13 22 7 12 - - 0.0
26/10:00am 23.9 21.3 7.9 36 8.5 ENE 11 20 6 11 - - 0.0
26/09:30am 23.3 20.9 7.0 35 8.5 E 9 19 5 10 - - 0.0
26/09:00am 22.3 19.8 6.5 36 8.1 ENE 9 19 5 10 - - 0.0
26/08:30am 20.8 19.4 7.1 41 7.1 ESE 4 11 2 6 - - 0.0
26/08:00am 19.0 17.4 6.5 44 6.3 ESE 4 7 2 4 - - 0.0
26/07:30am 16.9 15.6 7.5 54 4.8 SSE 4 6 2 3 - - 0.0
26/07:00am 16.4 15.2 8.1 58 4.3 SSW 4 9 2 5 - - 0.0
26/06:30am 15.7 14.3 8.7 63 3.6 SW 6 7 3 4 - - 0.0
26/06:00am 15.1 14.1 8.8 66 3.2 SW 4 6 2 3 - - 0.0
26/05:30am 15.0 14.3 8.5 65 3.3 SSW 2 4 1 2 - - 0.0
26/05:00am 15.5 15.3 9.2 66 3.3 CALM 0 0 0 0 - - 0.0
26/04:30am 15.8 15.6 9.0 64 3.5 CALM 0 0 0 0 - - 0.0
26/04:00am 16.0 15.3 8.5 61 3.9 SSW 2 4 1 2 - - 0.0
26/03:30am 16.4 15.9 9.3 63 3.7 SSW 2 4 1 2 - - 0.0
26/03:00am 17.4 17.2 10.5 64 3.7 SSW 2 4 1 2 - - 0.0
26/02:30am 17.5 17.0 10.6 64 3.7 SSW 4 4 2 2 - - 0.0
26/02:00am 17.8 17.1 10.2 61 4.1 SSW 4 6 2 3 - - 0.0
26/01:30am 18.0 17.3 9.9 59 4.3 SSW 4 4 2 2 - - 0.0
26/01:00am 18.5 17.8 10.1 58 4.5 SSW 4 4 2 2 - - 0.0
26/12:30am 18.1 16.4 9.7 58 4.5 SSW 9 9 5 5 - - 0.0
26/12:00am 18.7 17.8 9.2 54 5.0 SSW 4 6 2 3 - - 0.0
 
Date/Time
EST
Temp
°C
App
Temp
°C
Dew
Point
°C
Rel
Hum
%
Delta-T
°C
Wind Press
QNH
hPa
Press
MSL
hPa
Rain since
9am
mm
Dir  Spd
km/h
Gust
km/h
Spd
kts
Gust
kts
25/11:30pm 18.9 18.0 6.1 43 6.4 CALM 0 0 0 0 - - 0.0
25/11:00pm 20.3 19.4 5.9 39 7.2 CALM 0 0 0 0 - - 0.0
25/10:30pm 21.6 20.7 5.9 36 8.0 CALM 0 0 0 0 - - 0.0
25/10:00pm 23.0 21.4 6.3 34 8.6 ESE 4 6 2 3 - - 0.0
25/09:30pm 22.7 21.8 6.0 34 8.6 CALM 0 0 0 0 - - 0.0
25/09:00pm 22.5 21.6 5.9 34 8.5 CALM 0 0 0 0 - - 0.0
25/08:30pm 22.4 21.3 4.9 32 8.8 CALM 0 0 0 0 - - 0.0
25/08:00pm 23.1 22.0 5.1 31 9.1 CALM 0 0 0 0 - - 0.0
25/07:30pm 24.3 22.7 4.6 28 9.9 E 2 4 1 2 - - 0.0
25/07:00pm 25.5 24.0 5.1 27 10.5 ESE 2 6 1 3 - - 0.0
25/06:30pm 26.3 24.4 4.7 25 11.1 ENE 4 7 2 4 - - 0.0
25/06:00pm 27.3 24.9 4.4 23 11.7 ESE 6 13 3 7 - - 0.0
25/05:30pm 28.4 26.1 4.6 22 12.3 E 6 9 3 5 - - 0.0
25/05:00pm 28.6 26.0 4.2 21 12.6 ESE 7 15 4 8 - - 0.0
25/04:30pm 29.2 26.3 4.6 21 12.8 SSE 9 19 5 10 - - 0.0
25/04:00pm 28.9 27.2 5.7 23 12.3 ESE 4 13 2 7 - - 0.0
25/03:30pm 29.1 26.8 5.9 23 12.3 S 7 19 4 10 - - 0.0
25/03:00pm 29.1 26.6 6.5 24 12.1 E 9 15 5 8 - - 0.0
25/02:30pm 28.9 26.5 6.9 25 11.9 SE 9 20 5 11 - - 0.0
25/02:00pm 28.1 25.4 7.4 27 11.2 E 11 20 6 11 - - 0.0
25/01:30pm 28.4 26.5 7.6 27 11.3 ESE 7 13 4 7 - - 0.0
25/01:00pm 28.9 27.3 8.6 28 11.3 ENE 7 15 4 8 - - 0.0
25/12:30pm 26.9 25.2 8.4 31 10.1 ESE 7 19 4 10 - - 0.0
25/12:00pm 26.0 23.0 7.6 31 9.9 ESE 13 20 7 11 - - 0.0
25/11:30am 26.4 23.9 8.4 32 9.8 ENE 11 17 6 9 - - 0.0
25/11:00am 25.7 23.6 8.2 33 9.5 NE 9 17 5 9 - - 0.0
25/10:30am 25.5 23.1 8.5 34 9.3 ENE 11 17 6 9 - - 0.0
25/10:00am 24.3 22.5 7.9 35 8.8 ESE 7 15 4 8 - - 0.0
25/09:30am 22.2 20.9 7.6 39 7.7 ESE 4 13 2 7 - - 0.0
25/09:00am 18.4 18.5 10.0 58 4.5 CALM 0 0 0 0 - - 0.0
25/08:30am 15.7 14.8 9.1 65 3.4 SSW 4 6 2 3 - - 0.0
25/08:00am 13.9 13.5 8.3 69 2.8 CALM 0 0 0 0 - - 0.0
25/07:30am 13.0 12.6 8.1 72 2.5 CALM 0 0 0 0 - - 0.0
25/07:00am 12.7 12.1 7.4 70 2.6 CALM 0 0 0 0 - - 0.0
25/06:30am 13.3 12.8 7.7 69 2.8 CALM 0 0 0 0 - - 0.0
25/06:00am 13.9 13.2 8.5 70 2.7 SSW 2 6 1 3 - - 0.0
25/05:30am 14.3 13.2 8.5 68 3.0 SSW 4 4 2 2 - - 0.0
25/05:00am 14.6 14.0 8.8 68 3.0 SSW 2 2 1 1 - - 0.0
25/04:30am 14.7 13.5 8.2 65 3.3 SSW 4 4 2 2 - - 0.0
25/04:00am 15.4 14.1 9.1 66 3.3 SSW 6 7 3 4 - - 0.0
25/03:30am 14.8 14.1 7.1 60 3.8 CALM 0 0 0 0 - - 0.0
25/03:00am 15.6 14.9 8.4 62 3.7 SSW 2 4 1 2 - - 0.0
25/02:30am 16.3 14.7 8.0 58 4.2 SSW 6 9 3 5 - - 0.0
25/02:00am 16.5 15.9 9.0 61 3.9 SSW 2 4 1 2 - - 0.0
25/01:30am 16.8 16.4 9.7 63 3.8 SSW 2 4 1 2 - - 0.0
25/01:00am 17.1 16.3 9.5 61 4.0 SSW 4 4 2 2 - - 0.0
25/12:30am 17.1 16.2 9.3 60 4.1 SSW 4 6 2 3 - - 0.0
25/12:00am 17.4 16.6 9.6 60 4.1 SSW 4 6 2 3 - - 0.0
 
Date/Time
EST
Temp
°C
App
Temp
°C
Dew
Point
°C
Rel
Hum
%
Delta-T
°C
Wind Press
QNH
hPa
Press
MSL
hPa
Rain since
9am
mm
Dir  Spd
km/h
Gust
km/h
Spd
kts
Gust
kts
24/11:30pm 17.3 16.4 6.2 48 5.5 CALM 0 0 0 0 - - 0.0
24/11:00pm 17.9 17.8 9.5 58 4.5 CALM 0 0 0 0 - - 0.0
24/10:30pm 18.1 17.1 7.2 49 5.5 SSW 2 4 1 2 - - 0.0
24/10:00pm 18.9 18.2 9.9 56 4.8 SSW 4 6 2 3 - - 0.0
24/09:30pm 19.3 18.7 10.3 56 4.9 SSW 4 6 2 3 - - 0.0
24/09:00pm 20.1 20.4 10.8 55 5.1 CALM 0 0 0 0 - - 0.0

Other Formats:

Comma delimited format used in spreadsheet applications
http://www.bom.gov.au/fwo/IDQ60801/IDQ60801.94348.axf

JavaScript Object Notation format (JSON) in row-major order
http://www.bom.gov.au/fwo/IDQ60801/IDQ60801.94348.json